Left Hand, West Virginia
Current Conditions -  °F | °C
As of 9:54 PM on Friday 21 Nov 2014 (Local Time) from KCRW Reporting Station
Clear Clear  
Wind Chill: 23°   Ceiling: Unl
Heat Index: 23°   Visibility: 10mi
Dew Point: 15°   Wind: 3mph
Humidity: 72%   Direction: 30°NNE
Pressure: 30.45"   Gusts: NA
Location:  38.61°N, 81.25°W
Report Text: KCRW 220254Z 03003KT 10SM CLR M05/M09 A3045 RMK AO2 SLP321 T10501094 58009
Loading
Personal Weather Stations






























Interactive Weather Map New forecast layout! Learn more

10-Day Weather Forecast

Advertisements
Track Severe Weather on mobile